createdAt,value
2022-11-02T00:02:17.216Z,99854.63
2022-11-02T00:04:44.536Z,99845.78
2022-11-02T00:07:11.602Z,99616.63
2022-11-02T00:09:38.558Z,99778.44
2022-11-02T00:12:06.181Z,99850.53
2022-11-02T00:14:33.341Z,99760.91
2022-11-02T00:17:00.490Z,99815.97
2022-11-02T00:19:27.547Z,99847.47
2022-11-02T00:21:55.827Z,99854.25
2022-11-02T00:24:22.989Z,99783.13
2022-11-02T00:26:50.111Z,99833.13
2022-11-02T00:29:17.169Z,99854.75
2022-11-02T00:31:44.194Z,99836.28
2022-11-02T00:34:12.262Z,99843.25
2022-11-02T00:36:39.350Z,99847.66
2022-11-02T00:39:06.451Z,99801.19
2022-11-02T00:41:33.480Z,99737.00
2022-11-02T00:44:00.567Z,99836.22
2022-11-02T00:46:27.728Z,99831.75
2022-11-02T00:48:55.043Z,99848.91
2022-11-02T00:51:22.159Z,99830.16
2022-11-02T00:53:49.384Z,99756.66
2022-11-02T00:56:16.530Z,99737.44
2022-11-02T00:58:43.723Z,99758.72
2022-11-02T01:01:12.022Z,99720.16
2022-11-02T01:03:39.110Z,99830.16
2022-11-02T01:06:14.929Z,99813.63
2022-11-02T01:08:42.277Z,99813.63
2022-11-02T01:11:21.854Z,99818.88
2022-11-02T01:13:51.070Z,99821.22
2022-11-02T01:16:19.405Z,99828.22
2022-11-02T01:18:46.892Z,99838.25
2022-11-02T01:21:14.136Z,99822.53
2022-11-02T01:23:41.245Z,99804.34
2022-11-02T01:26:10.697Z,99787.75
2022-11-02T01:28:38.097Z,99767.56
2022-11-02T01:31:06.414Z,99794.84
2022-11-02T01:33:34.751Z,99818.88
2022-11-02T01:36:05.432Z,99803.81
2022-11-02T01:38:33.375Z,99818.13
2022-11-02T01:41:00.721Z,99798.91
2022-11-02T01:43:33.349Z,99795.66
2022-11-02T01:46:11.757Z,99794.03
2022-11-02T01:48:44.380Z,99718.66
2022-11-02T01:51:15.886Z,99807.47
2022-11-02T01:53:46.570Z,99484.97
2022-11-02T01:56:18.167Z,99769.03
2022-11-02T01:58:49.462Z,99470.84
2022-11-02T02:01:16.596Z,99815.00
2022-11-02T02:03:44.153Z,99784.16
2022-11-02T02:06:14.299Z,99812.13
2022-11-02T02:08:46.079Z,99808.28
2022-11-02T02:11:29.108Z,99780.34
2022-11-02T02:14:12.311Z,99815.97
2022-11-02T02:17:00.866Z,99773.13
2022-11-02T02:19:52.350Z,99818.44
2022-11-02T02:22:20.903Z,99791.94
2022-11-02T02:25:22.263Z,99812.38
2022-11-02T02:28:02.137Z,99815.72
2022-11-02T02:30:33.335Z,99821.94
2022-11-02T02:33:30.549Z,99796.81
2022-11-02T02:36:20.143Z,99824.59
2022-11-02T02:38:55.281Z,99821.09
2022-11-02T02:41:34.478Z,99815.88
2022-11-02T02:44:06.068Z,99810.47
2022-11-02T02:46:55.897Z,99818.75
2022-11-02T02:49:33.808Z,99823.00
2022-11-02T02:52:03.599Z,99773.94
2022-11-02T02:54:36.497Z,99800.97
2022-11-02T02:57:11.189Z,99820.63
2022-11-02T02:59:42.625Z,99776.78
2022-11-02T03:02:20.776Z,99821.22
2022-11-02T03:04:48.176Z,99800.84
2022-11-02T03:07:29.592Z,99813.28
2022-11-02T03:10:28.013Z,99823.06
2022-11-02T03:13:04.213Z,99821.22
2022-11-02T03:15:40.590Z,99743.22
2022-11-02T03:18:26.239Z,99821.38
2022-11-02T03:21:08.472Z,99744.78
2022-11-02T03:23:49.306Z,99738.50
2022-11-02T03:26:41.758Z,99734.91
2022-11-02T03:29:30.865Z,99822.75
2022-11-02T03:32:06.128Z,99769.94
2022-11-02T03:34:49.345Z,99824.28
2022-11-02T03:37:40.053Z,99816.66
2022-11-02T03:40:14.806Z,99816.53
2022-11-02T03:42:44.389Z,99725.16
2022-11-02T03:45:22.875Z,99807.34
2022-11-02T03:47:58.850Z,99812.88
2022-11-02T03:50:27.763Z,99787.53
2022-11-02T03:53:01.350Z,99810.50
2022-11-02T03:55:33.994Z,99801.78
2022-11-02T03:58:01.481Z,99768.38
2022-11-02T04:00:37.236Z,99721.19
2022-11-02T04:03:12.295Z,99809.63
2022-11-02T04:05:43.760Z,99812.06
2022-11-02T04:08:37.692Z,99821.38
2022-11-02T04:11:27.255Z,99732.56
2022-11-02T04:14:17.555Z,99815.72
2022-11-02T04:16:45.840Z,99820.91
2022-11-02T04:19:28.879Z,99761.22
2022-11-02T04:22:20.892Z,99811.06
2022-11-02T04:25:10.619Z,99810.31
2022-11-02T04:27:39.701Z,99790.00
2022-11-02T04:30:09.786Z,99811.78
2022-11-02T04:32:59.698Z,99806.47
2022-11-02T04:35:31.927Z,99775.75
2022-11-02T04:38:18.869Z,99802.06
2022-11-02T04:40:46.791Z,99779.06
2022-11-02T04:43:14.405Z,99803.63
2022-11-02T04:45:41.934Z,99805.66
2022-11-02T04:48:09.940Z,99807.41
2022-11-02T04:50:38.381Z,99805.72
2022-11-02T04:53:07.395Z,99795.94
2022-11-02T04:55:35.534Z,99792.88
2022-11-02T04:58:03.389Z,99781.16
2022-11-02T05:00:31.553Z,99798.78
2022-11-02T05:02:58.721Z,99791.81
2022-11-02T05:05:26.667Z,99803.16
2022-11-02T05:07:57.445Z,99798.72
2022-11-02T05:10:24.791Z,99797.16
2022-11-02T05:12:59.805Z,99792.78
2022-11-02T05:15:31.533Z,99798.50
2022-11-02T05:18:00.571Z,99791.75
2022-11-02T05:20:30.152Z,99784.47
2022-11-02T05:22:58.071Z,99782.19
2022-11-02T05:25:25.353Z,99805.72
2022-11-02T05:27:52.862Z,99801.13
2022-11-02T05:30:20.327Z,99750.25
2022-11-02T05:32:48.160Z,99700.16
2022-11-02T05:35:15.416Z,99817.53
2022-11-02T05:37:43.693Z,99715.69
2022-11-02T05:40:12.430Z,99816.66
2022-11-02T05:42:40.223Z,99812.31
2022-11-02T05:45:07.621Z,99809.63
2022-11-02T05:47:34.916Z,99780.75
2022-11-02T05:50:02.451Z,99806.31
2022-11-02T05:52:30.677Z,99814.22
2022-11-02T05:54:57.933Z,99819.22
2022-11-02T05:57:24.978Z,99802.88
2022-11-02T05:59:52.062Z,99815.75
2022-11-02T06:02:20.875Z,99819.78
2022-11-02T06:04:50.416Z,99447.16
2022-11-02T06:07:17.454Z,99716.50
2022-11-02T06:09:44.586Z,99802.47
2022-11-02T06:12:11.601Z,99805.16
2022-11-02T06:14:38.588Z,99778.19
2022-11-02T06:17:05.702Z,99805.44
2022-11-02T06:19:32.651Z,99781.09
2022-11-02T06:21:59.584Z,99770.63
2022-11-02T06:24:26.786Z,99771.09
2022-11-02T06:26:53.822Z,99817.06
2022-11-02T06:29:21.248Z,99698.38
2022-11-02T06:31:48.296Z,99801.13
2022-11-02T06:34:15.392Z,99652.81
2022-11-02T06:36:42.327Z,99774.81
2022-11-02T06:39:09.385Z,99789.38
2022-11-02T06:41:36.479Z,99782.34
2022-11-02T06:44:03.619Z,99705.97
2022-11-02T06:46:30.631Z,99793.75
2022-11-02T06:48:59.016Z,99707.81
2022-11-02T06:51:26.182Z,99745.31
2022-11-02T06:53:53.127Z,99785.25
2022-11-02T06:56:20.082Z,99774.00
2022-11-02T06:58:47.080Z,99814.06
2022-11-02T07:01:15.648Z,99757.53
2022-11-02T07:03:42.926Z,99567.91
2022-11-02T07:06:14.204Z,99812.31
2022-11-02T07:08:42.583Z,99808.03
2022-11-02T07:11:14.347Z,99653.38
2022-11-02T07:13:41.460Z,99814.34
2022-11-02T07:16:08.637Z,99809.00
2022-11-02T07:18:36.063Z,99783.56
2022-11-02T07:21:03.187Z,99813.34
2022-11-02T07:23:30.598Z,99736.25
2022-11-02T07:25:57.574Z,99826.63
2022-11-02T07:28:24.463Z,99760.75
2022-11-02T07:30:54.205Z,99824.19
2022-11-02T07:33:21.762Z,99823.22
2022-11-02T07:35:48.886Z,99799.38
2022-11-02T07:38:15.835Z,99792.28
2022-11-02T07:40:42.925Z,99829.69
2022-11-02T07:43:10.175Z,99816.53
2022-11-02T07:45:51.719Z,99819.34
2022-11-02T07:48:18.955Z,99837.72
2022-11-02T07:50:46.079Z,99770.06
2022-11-02T07:53:13.098Z,99849.59
2022-11-02T07:55:40.716Z,99850.59
2022-11-02T07:58:11.157Z,99830.63
2022-11-02T08:00:40.957Z,99822.91
2022-11-02T08:03:09.920Z,99717.47
2022-11-02T08:05:41.884Z,99842.78
2022-11-02T08:08:20.372Z,99744.44
2022-11-02T08:10:49.673Z,99771.00
2022-11-02T08:13:19.317Z,99809.22
2022-11-02T08:15:53.166Z,99834.25
2022-11-02T08:18:23.416Z,99838.84
2022-11-02T08:20:51.127Z,99815.38
2022-11-02T08:23:21.039Z,99746.44
2022-11-02T08:25:50.440Z,99814.00
2022-11-02T08:28:26.272Z,99781.78
2022-11-02T08:30:53.348Z,99821.31
2022-11-02T08:33:21.413Z,99817.69
2022-11-02T08:35:49.127Z,99788.63
2022-11-02T08:38:16.762Z,99843.69
2022-11-02T08:40:45.027Z,99809.78
2022-11-02T08:43:14.692Z,99702.69
2022-11-02T08:48:32.212Z,99750.03
2022-11-02T08:50:59.268Z,99808.97
2022-11-02T08:53:26.430Z,99811.53
2022-11-02T08:55:53.347Z,99773.06
2022-11-02T08:58:20.279Z,99804.81
2022-11-02T09:00:47.264Z,99733.75
2022-11-02T09:03:17.173Z,99834.28
2022-11-02T09:05:47.393Z,99833.69
2022-11-02T09:08:17.362Z,99798.69
2022-11-02T09:10:45.685Z,99832.88
2022-11-02T09:13:14.579Z,99835.63
2022-11-02T09:15:42.044Z,99825.28
2022-11-02T09:18:09.636Z,99833.94
2022-11-02T09:20:37.655Z,99808.63
2022-11-02T09:23:04.762Z,99811.19
2022-11-02T09:25:31.881Z,99511.44
2022-11-02T09:27:59.423Z,99818.28
2022-11-02T09:30:28.799Z,99813.59
2022-11-02T09:32:56.394Z,99819.25
2022-11-02T09:35:24.497Z,99761.78
2022-11-02T09:37:51.618Z,99800.34
2022-11-02T09:40:26.482Z,99818.84
2022-11-02T09:43:13.420Z,99815.19
2022-11-02T09:45:53.701Z,99798.72
2022-11-02T09:48:40.963Z,99800.00
2022-11-02T09:51:16.531Z,99774.78
2022-11-02T09:54:06.577Z,99773.91
2022-11-02T09:56:35.511Z,99795.69
2022-11-02T09:59:11.921Z,99804.94
2022-11-02T10:02:10.807Z,99787.50
2022-11-02T10:05:18.958Z,99821.91
2022-11-02T10:07:58.254Z,99815.75
2022-11-02T10:10:40.176Z,99588.53
2022-11-02T10:13:34.467Z,99799.69
2022-11-02T10:16:20.147Z,99786.53
2022-11-02T10:18:50.635Z,99799.53
2022-11-02T10:21:28.377Z,99815.69
2022-11-02T10:23:58.182Z,99795.56
2022-11-02T10:26:43.712Z,99827.97
2022-11-02T10:29:20.513Z,99822.59
2022-11-02T10:31:48.784Z,99821.47
2022-11-02T10:34:29.139Z,99824.22
2022-11-02T10:37:19.108Z,99821.53
2022-11-02T10:39:58.510Z,99829.47
2022-11-02T10:42:44.940Z,99831.13
2022-11-02T10:45:11.848Z,99808.56
2022-11-02T10:48:07.518Z,99834.00
2022-11-02T10:51:06.506Z,99844.03
2022-11-02T10:53:41.798Z,99837.66
2022-11-02T10:56:20.527Z,99833.31
2022-11-02T10:58:56.964Z,99836.78
2022-11-02T11:01:24.337Z,99751.81
2022-11-02T11:04:20.291Z,99772.06
2022-11-02T11:06:47.370Z,99793.84
2022-11-02T11:09:23.771Z,99744.94
2022-11-02T11:12:04.461Z,99800.56
2022-11-02T11:20:40.061Z,99838.44
2022-11-02T11:23:27.589Z,99837.69
2022-11-02T11:26:06.769Z,99833.47
2022-11-02T11:28:55.410Z,99827.50
2022-11-02T11:31:23.277Z,99718.63
2022-11-02T11:33:58.603Z,99814.06
2022-11-02T11:36:34.573Z,99832.41
2022-11-02T11:39:04.002Z,99826.19
2022-11-02T11:41:33.378Z,99818.31
2022-11-02T11:44:02.677Z,99824.41
2022-11-02T11:46:41.335Z,99819.19
2022-11-02T11:52:24.484Z,99737.28
2022-11-02T11:55:00.207Z,99809.00
2022-11-02T11:57:31.878Z,99811.56
2022-11-02T12:00:02.026Z,99673.19
2022-11-02T12:02:38.000Z,99832.31
2022-11-02T12:05:13.433Z,99831.63
2022-11-02T12:08:10.081Z,99799.38
2022-11-02T12:11:08.766Z,99835.25
2022-11-02T12:13:44.856Z,99833.63
2022-11-02T12:16:44.841Z,99833.78
2022-11-02T12:19:34.185Z,99816.22
2022-11-02T12:22:21.631Z,99838.06
2022-11-02T12:24:51.485Z,99834.38
2022-11-02T12:27:36.777Z,99830.81
2022-11-02T12:30:20.607Z,99810.81
2022-11-02T12:33:14.804Z,99763.94
2022-11-02T12:35:58.337Z,99841.09
2022-11-02T12:38:52.915Z,99848.91
2022-11-02T12:41:43.111Z,99848.53
2022-11-02T12:45:05.042Z,99849.38
2022-11-02T12:47:51.686Z,99853.38
2022-11-02T12:50:43.094Z,99855.41
2022-11-02T12:53:37.150Z,99863.44
2022-11-02T12:56:09.091Z,99841.06
2022-11-02T12:58:39.977Z,99854.50
2022-11-02T13:01:25.080Z,99848.56
2022-11-02T13:04:17.549Z,99778.44
2022-11-02T13:06:48.876Z,99723.78
2022-11-02T13:09:28.652Z,99856.34
2022-11-02T13:12:07.087Z,99870.31
2022-11-02T13:15:10.895Z,99859.94
2022-11-02T13:17:52.402Z,99749.22
2022-11-02T13:20:36.125Z,99835.34
2022-11-02T13:23:26.063Z,99861.56
2022-11-02T13:25:58.809Z,99886.19
2022-11-02T13:28:38.279Z,99865.09
2022-11-02T13:31:13.007Z,99880.06
2022-11-02T13:33:47.189Z,99889.16
2022-11-02T13:36:15.408Z,99804.31
2022-11-02T13:39:00.796Z,99875.91
2022-11-02T13:42:15.342Z,99889.19
2022-11-02T13:45:15.227Z,99843.97
2022-11-02T13:48:18.343Z,99887.91
2022-11-02T13:50:58.367Z,99861.41
2022-11-02T13:53:37.754Z,99888.13
2022-11-02T13:56:21.104Z,99850.09
2022-11-02T13:58:56.382Z,99882.19
2022-11-02T14:01:24.739Z,99893.50
2022-11-02T14:04:04.142Z,99786.97
2022-11-02T14:06:34.665Z,99894.34
2022-11-02T14:09:05.532Z,99878.78
2022-11-02T14:11:56.578Z,99896.28
2022-11-02T14:14:25.391Z,99904.59
2022-11-02T14:16:52.497Z,99814.34
2022-11-02T14:19:24.702Z,99891.59
2022-11-02T14:21:52.402Z,99844.72
2022-11-02T14:24:34.455Z,99902.34
2022-11-02T14:27:05.273Z,99864.41
2022-11-02T14:29:59.226Z,99890.75
2022-11-02T14:33:11.048Z,99874.06
2022-11-02T14:35:44.387Z,99897.63
2022-11-02T14:38:26.270Z,99895.38
2022-11-02T14:40:53.436Z,99877.06
2022-11-02T14:43:30.406Z,99877.66
2022-11-02T14:46:18.675Z,99889.25
2022-11-02T14:48:51.953Z,99712.53
2022-11-02T14:51:27.169Z,99880.59
2022-11-02T14:54:01.504Z,99901.47
2022-11-02T14:56:52.919Z,99914.56
2022-11-02T14:59:35.452Z,99814.09
2022-11-02T15:02:09.931Z,99882.09
2022-11-02T15:04:37.387Z,99906.00
2022-11-02T15:07:06.701Z,99901.31
2022-11-02T15:10:17.962Z,99903.56
2022-11-02T15:12:49.450Z,99885.53
2022-11-02T15:15:36.463Z,99894.63
2022-11-02T15:18:28.185Z,99887.44
2022-11-02T15:21:10.794Z,99867.91
2022-11-02T15:24:00.126Z,99852.47
2022-11-02T15:26:45.884Z,99887.88
2022-11-02T15:29:51.605Z,99881.09
2022-11-02T15:32:24.253Z,99874.78
2022-11-02T15:34:55.816Z,99859.91
2022-11-02T15:37:50.306Z,99895.56
2022-11-02T15:40:27.019Z,99818.47
2022-11-02T15:43:22.971Z,99885.53
2022-11-02T15:46:24.753Z,99795.25
2022-11-02T15:49:30.703Z,99873.41
2022-11-02T15:53:01.758Z,99820.22
2022-11-02T15:55:47.608Z,99804.09
2022-11-02T15:58:24.537Z,99815.72
2022-11-02T16:01:12.192Z,99907.63
2022-11-02T16:03:44.905Z,99873.16
2022-11-02T16:06:12.300Z,99833.25
2022-11-02T16:08:39.508Z,99904.81
2022-11-02T16:11:17.618Z,99913.75
2022-11-02T16:13:55.943Z,99917.94
2022-11-02T16:16:35.865Z,99916.88
2022-11-02T16:19:03.060Z,99793.44
2022-11-02T16:21:30.572Z,99890.44
2022-11-02T16:23:59.513Z,99913.38
2022-11-02T16:26:29.908Z,99916.75
2022-11-02T16:29:00.145Z,99924.25
2022-11-02T16:31:32.142Z,99838.00
2022-11-02T16:34:17.261Z,99924.13
2022-11-02T16:36:44.525Z,99821.84
2022-11-02T16:39:19.344Z,99827.06
2022-11-02T16:41:52.576Z,99894.63
2022-11-02T16:44:30.804Z,99903.25
2022-11-02T16:47:17.489Z,99935.16
2022-11-02T16:49:51.059Z,99830.63
2022-11-02T16:52:21.821Z,99909.50
2022-11-02T16:54:48.934Z,99912.25
2022-11-02T16:57:22.594Z,99923.44
2022-11-02T16:59:50.387Z,99930.06
2022-11-02T17:02:18.932Z,99837.03
2022-11-02T17:04:48.750Z,99913.03
2022-11-02T17:07:28.152Z,99890.00
2022-11-02T17:09:57.967Z,99871.41
2022-11-02T17:12:40.084Z,99912.13
2022-11-02T17:15:17.879Z,99929.72
2022-11-02T17:17:45.550Z,99797.41
2022-11-02T17:20:15.290Z,99781.34
2022-11-02T17:23:01.836Z,99923.94
2022-11-02T17:25:33.039Z,99889.28
2022-11-02T17:28:02.931Z,99907.59
2022-11-02T17:30:30.385Z,99847.91
2022-11-02T17:32:58.418Z,99796.84
2022-11-02T17:35:27.404Z,99905.75
2022-11-02T17:37:54.827Z,99916.22
2022-11-02T17:40:22.327Z,99925.91
2022-11-02T17:42:59.338Z,99926.72
2022-11-02T17:45:28.862Z,99927.03
2022-11-02T17:47:58.189Z,99913.28
2022-11-02T17:50:27.079Z,99891.78
2022-11-02T17:52:54.910Z,99953.50
2022-11-02T17:55:24.508Z,99814.22
2022-11-02T17:57:51.709Z,99904.81
2022-11-02T18:00:19.369Z,99945.91
2022-11-02T18:02:57.595Z,99860.78
2022-11-02T18:05:27.692Z,99942.94
2022-11-02T18:07:57.869Z,99828.09
2022-11-02T18:10:29.439Z,99942.81
2022-11-02T18:12:57.067Z,99955.94
2022-11-02T18:15:29.936Z,99899.63
2022-11-02T18:17:57.323Z,99923.06
2022-11-02T18:20:26.645Z,99837.91
2022-11-02T18:22:57.217Z,99921.31
2022-11-02T18:25:30.481Z,99946.72
2022-11-02T18:27:59.106Z,99946.72
2022-11-02T18:30:27.701Z,99943.03
2022-11-02T18:32:56.592Z,99959.84
2022-11-02T18:35:24.783Z,99933.94
2022-11-02T18:37:52.561Z,99928.97
2022-11-02T18:40:20.455Z,99922.56
2022-11-02T18:42:47.717Z,99912.88
2022-11-02T18:45:16.154Z,99941.06
2022-11-02T18:47:43.321Z,99917.31
2022-11-02T18:50:12.488Z,99834.47
2022-11-02T18:52:40.484Z,99950.25
2022-11-02T18:55:07.860Z,99927.69
2022-11-02T18:57:35.011Z,99868.31
2022-11-02T19:00:03.030Z,99921.06
2022-11-02T19:02:33.476Z,99955.34
2022-11-02T19:05:00.541Z,99952.97
2022-11-02T19:07:47.784Z,99866.22
2022-11-02T19:10:14.766Z,99882.75
2022-11-02T19:12:41.738Z,99930.31
2022-11-02T19:15:09.220Z,99951.63
2022-11-02T19:17:36.278Z,99940.72
2022-11-02T19:20:03.469Z,99964.72
2022-11-02T19:22:30.462Z,99959.44
2022-11-02T19:24:57.581Z,99920.41
2022-11-02T19:27:25.557Z,99929.59
2022-11-02T19:29:53.172Z,99949.78
2022-11-02T19:32:21.182Z,99950.47
2022-11-02T19:34:48.371Z,99924.75
2022-11-02T19:37:15.676Z,99953.75
2022-11-02T19:39:42.852Z,99957.13
2022-11-02T19:42:09.981Z,99931.53
2022-11-02T19:44:42.262Z,99957.59
2022-11-02T19:47:10.678Z,99943.28
2022-11-02T19:49:37.717Z,99963.66
2022-11-02T19:52:04.829Z,99903.03
2022-11-02T19:54:31.968Z,99969.25
2022-11-02T19:56:58.997Z,99959.50
2022-11-02T19:59:26.178Z,99946.84
2022-11-02T20:01:53.366Z,99949.88
2022-11-02T20:04:20.577Z,99981.72
2022-11-02T20:06:47.757Z,99971.94
2022-11-02T20:09:17.044Z,99963.16
2022-11-02T20:11:45.439Z,99985.06
2022-11-02T20:14:14.890Z,99988.44
2022-11-02T20:16:42.394Z,99981.56
2022-11-02T20:19:10.339Z,99984.13
2022-11-02T20:21:42.661Z,99949.19
2022-11-02T20:24:11.152Z,99964.06
2022-11-02T20:26:41.457Z,99995.16
2022-11-02T20:29:12.182Z,99982.31
2022-11-02T20:31:42.693Z,99855.28
2022-11-02T20:34:13.163Z,99951.41
2022-11-02T20:36:40.411Z,99895.81
2022-11-02T20:39:08.212Z,99993.34
2022-11-02T20:41:35.332Z,99954.63
2022-11-02T20:44:02.465Z,99984.28
2022-11-02T20:46:41.006Z,99970.63
2022-11-02T20:49:20.421Z,99836.00
2022-11-02T20:51:49.527Z,99998.72
2022-11-02T20:54:18.461Z,99854.63
2022-11-02T20:56:45.565Z,99959.09
2022-11-02T20:59:12.623Z,99984.53
2022-11-02T21:01:39.980Z,99967.44
2022-11-02T21:04:07.656Z,99969.53
2022-11-02T21:06:34.704Z,99983.78
2022-11-02T21:09:09.010Z,99983.84
2022-11-02T21:12:08.079Z,99974.59
2022-11-02T21:14:35.207Z,99923.22
2022-11-02T21:17:03.182Z,99957.63
2022-11-02T21:19:30.170Z,99991.47
2022-11-02T21:21:59.903Z,99989.78
2022-11-02T21:24:28.871Z,99845.63
2022-11-02T21:26:56.334Z,99992.41
2022-11-02T21:29:24.011Z,99984.31
2022-11-02T21:31:51.221Z,99945.16
2022-11-02T21:34:18.441Z,99945.75
2022-11-02T21:36:46.933Z,99937.75
2022-11-02T21:39:14.013Z,99995.69
2022-11-02T21:41:40.995Z,99985.19
2022-11-02T21:44:09.090Z,99897.28
2022-11-02T21:46:36.104Z,99992.81
2022-11-02T21:49:04.007Z,100001.50
2022-11-02T21:51:31.145Z,99986.47
2022-11-02T21:53:58.242Z,100005.66
2022-11-02T21:56:27.322Z,100005.13
2022-11-02T21:58:55.612Z,100007.94
2022-11-02T22:01:43.634Z,99979.13
2022-11-02T22:04:33.989Z,99995.56
2022-11-02T22:08:09.850Z,99994.75
2022-11-02T22:11:00.083Z,99983.41
2022-11-02T22:13:32.888Z,99993.88
2022-11-02T22:16:20.562Z,99994.03
2022-11-02T22:18:48.407Z,99993.22
2022-11-02T22:21:17.149Z,99985.63
2022-11-02T22:24:52.546Z,99982.19
2022-11-02T22:27:19.683Z,100000.88
2022-11-02T22:30:51.382Z,99995.38
2022-11-02T22:33:18.401Z,99977.84
2022-11-02T22:35:45.288Z,99986.63
2022-11-02T22:38:30.653Z,99993.53
2022-11-02T22:41:01.717Z,99967.97
2022-11-02T22:43:29.034Z,99981.75
2022-11-02T22:46:03.757Z,100001.97
2022-11-02T22:48:31.157Z,99976.78
2022-11-02T22:50:58.208Z,99986.28
2022-11-02T22:53:27.872Z,99973.81
2022-11-02T22:55:59.196Z,99972.94
2022-11-02T22:58:27.570Z,99968.63
2022-11-02T23:00:55.026Z,99989.41
2022-11-02T23:03:22.337Z,99986.66
2022-11-02T23:05:49.463Z,99910.97
2022-11-02T23:08:16.949Z,100000.66
2022-11-02T23:11:03.766Z,99978.91
2022-11-02T23:13:30.973Z,99996.97
2022-11-02T23:16:22.205Z,99989.00
2022-11-02T23:19:31.866Z,100003.75
2022-11-02T23:22:29.687Z,99946.25
2022-11-02T23:25:17.360Z,99981.31
2022-11-02T23:28:13.589Z,99985.44
2022-11-02T23:30:59.129Z,99983.69
2022-11-02T23:33:31.243Z,99967.84
2022-11-02T23:36:11.099Z,99942.34
2022-11-02T23:39:04.718Z,99969.00
2022-11-02T23:41:33.821Z,99987.03
2022-11-02T23:44:14.162Z,99992.66
2022-11-02T23:46:42.948Z,99997.78
2022-11-02T23:49:50.478Z,99919.44
2022-11-02T23:52:56.660Z,99975.94
2022-11-02T23:55:42.302Z,99953.25
2022-11-02T23:58:09.333Z,99850.81
